createdAt,value
2022-12-14T00:01:58.319Z,12.90
2022-12-14T00:06:59.822Z,12.50
2022-12-14T00:12:01.284Z,13.13
2022-12-14T00:17:02.777Z,13.90
2022-12-14T00:22:04.203Z,14.60
2022-12-14T00:27:05.669Z,12.38
2022-12-14T00:32:07.146Z,12.65
2022-12-14T00:37:08.636Z,12.35
2022-12-14T00:42:10.267Z,13.20
2022-12-14T00:47:11.697Z,12.73
2022-12-14T00:52:13.197Z,12.98
2022-12-14T00:57:14.718Z,13.88
2022-12-14T01:02:16.323Z,13.82
2022-12-14T01:07:17.939Z,13.30
2022-12-14T01:12:19.459Z,13.18
2022-12-14T01:17:21.068Z,15.52
2022-12-14T01:22:22.565Z,13.63
2022-12-14T01:27:24.078Z,14.68
2022-12-14T01:32:25.567Z,15.88
2022-12-14T01:37:27.066Z,13.05
2022-12-14T01:42:28.496Z,14.52
2022-12-14T01:47:41.555Z,13.90
2022-12-14T01:52:47.116Z,13.60
2022-12-14T01:57:51.344Z,15.40
2022-12-14T02:03:09.039Z,14.82
2022-12-14T02:08:11.694Z,16.38
2022-12-14T02:13:28.016Z,15.40
2022-12-14T02:18:31.817Z,18.27
2022-12-14T02:23:51.953Z,15.18
2022-12-14T02:29:27.135Z,16.83
2022-12-14T02:34:31.469Z,16.23
2022-12-14T02:39:40.175Z,15.52
2022-12-14T02:44:59.748Z,16.23
2022-12-14T02:50:22.951Z,15.45
2022-12-14T02:55:50.083Z,15.93
2022-12-14T03:00:54.383Z,16.23
2022-12-14T03:06:05.419Z,16.80
2022-12-14T03:11:07.549Z,15.85
2022-12-14T03:16:14.553Z,16.38
2022-12-14T03:21:21.545Z,15.45
2022-12-14T03:26:29.119Z,15.82
2022-12-14T03:31:33.798Z,15.38
2022-12-14T03:36:43.776Z,16.00
2022-12-14T03:42:11.223Z,15.85
2022-12-14T03:47:21.719Z,16.35
2022-12-14T03:52:38.386Z,14.55
2022-12-14T03:58:02.076Z,17.02
2022-12-14T04:03:23.603Z,15.73
2022-12-14T04:08:33.801Z,16.98
2022-12-14T04:13:40.347Z,16.40
2022-12-14T04:18:45.723Z,15.55
2022-12-14T04:23:57.334Z,15.55
2022-12-14T04:29:15.648Z,17.52
2022-12-14T04:34:20.665Z,15.77
2022-12-14T04:39:29.204Z,16.40
2022-12-14T04:44:42.569Z,16.30
2022-12-14T04:49:49.823Z,14.73
2022-12-14T04:55:03.340Z,15.73
2022-12-14T05:00:05.759Z,17.50
2022-12-14T05:05:18.517Z,15.88
2022-12-14T05:10:32.071Z,15.18
2022-12-14T05:15:44.330Z,15.77
2022-12-14T05:20:47.166Z,16.23
2022-12-14T05:25:49.213Z,14.45
2022-12-14T05:30:51.656Z,14.45
2022-12-14T05:35:54.923Z,15.95
2022-12-14T05:40:56.374Z,16.17
2022-12-14T05:45:59.332Z,17.25
2022-12-14T05:51:08.903Z,17.38
2022-12-14T05:56:10.939Z,17.23
2022-12-14T06:01:18.541Z,16.65
2022-12-14T06:06:20.745Z,16.60
2022-12-14T06:11:23.261Z,17.00
2022-12-14T06:16:25.882Z,16.15
2022-12-14T06:21:33.384Z,18.25
2022-12-14T06:26:36.039Z,16.52
2022-12-14T06:31:37.492Z,15.75
2022-12-14T06:36:41.267Z,15.60
2022-12-14T06:41:43.373Z,15.10
2022-12-14T06:46:45.036Z,16.15
2022-12-14T06:51:46.522Z,15.32
2022-12-14T06:56:48.276Z,16.08
2022-12-14T07:01:50.327Z,17.35
2022-12-14T07:06:52.079Z,16.42
2022-12-14T07:11:53.490Z,14.25
2022-12-14T07:16:54.968Z,15.52
2022-12-14T07:21:56.392Z,18.40
2022-12-14T07:26:58.097Z,16.80
2022-12-14T07:31:59.608Z,17.02
2022-12-14T07:37:01.021Z,16.60
2022-12-14T07:42:02.515Z,15.18
2022-12-14T07:47:04.236Z,18.38
2022-12-14T07:52:05.661Z,15.13
2022-12-14T07:57:07.296Z,15.57
2022-12-14T08:02:11.393Z,17.70
2022-12-14T08:07:12.902Z,16.50
2022-12-14T08:12:14.378Z,16.20
2022-12-14T08:17:15.812Z,16.40
2022-12-14T08:22:17.267Z,16.67
2022-12-14T08:27:18.738Z,16.83
2022-12-14T08:32:20.333Z,17.77
2022-12-14T08:37:21.747Z,17.45
2022-12-14T08:42:23.203Z,17.08
2022-12-14T08:47:24.674Z,16.70
2022-12-14T08:52:26.160Z,17.00
2022-12-14T08:57:27.835Z,14.73
2022-12-14T09:02:29.388Z,17.45
2022-12-14T09:07:31.873Z,17.17
2022-12-14T09:12:33.329Z,16.08
2022-12-14T09:17:34.850Z,19.17
2022-12-14T09:22:36.307Z,17.65
2022-12-14T09:27:37.742Z,16.60
2022-12-14T09:32:39.261Z,18.45
2022-12-14T09:37:40.748Z,17.83
2022-12-14T09:43:13.008Z,17.90
2022-12-14T09:48:19.734Z,17.02
2022-12-14T09:53:22.122Z,18.23
2022-12-14T09:58:31.111Z,17.27
2022-12-14T10:03:41.898Z,18.10
2022-12-14T10:08:56.954Z,17.55
2022-12-14T10:14:20.896Z,19.00
2022-12-14T10:19:45.775Z,17.92
2022-12-14T10:24:54.628Z,18.33
2022-12-14T10:30:08.713Z,18.45
2022-12-14T10:35:19.608Z,18.42
2022-12-14T10:40:34.063Z,17.35
2022-12-14T10:45:51.345Z,19.30
2022-12-14T10:51:02.978Z,17.80
2022-12-14T10:56:11.301Z,18.58
2022-12-14T11:01:14.067Z,19.25
2022-12-14T11:06:19.151Z,17.92
2022-12-14T11:11:24.746Z,19.70
2022-12-14T11:16:38.779Z,17.83
2022-12-14T11:21:41.747Z,17.20
2022-12-14T11:26:43.920Z,15.23
2022-12-14T11:31:48.335Z,17.35
2022-12-14T11:36:50.084Z,19.00
2022-12-14T11:41:57.259Z,16.73
2022-12-14T11:46:58.647Z,17.08
2022-12-14T11:52:05.788Z,16.30
2022-12-14T11:57:13.150Z,17.40
2022-12-14T12:02:32.438Z,17.38
2022-12-14T12:07:36.693Z,17.43
2022-12-14T12:12:52.246Z,16.88
2022-12-14T12:18:01.160Z,18.27
2022-12-14T12:23:13.252Z,18.92
2022-12-14T12:28:21.904Z,17.48
2022-12-14T12:33:28.732Z,17.98
2022-12-14T12:38:36.293Z,20.05
2022-12-14T12:43:49.891Z,18.67
2022-12-14T12:49:18.352Z,18.15
2022-12-14T12:54:37.820Z,18.38
2022-12-14T12:59:49.864Z,18.05
2022-12-14T13:04:53.205Z,16.30
2022-12-14T13:10:05.762Z,17.40
2022-12-14T13:15:20.859Z,22.40
2022-12-14T13:20:28.820Z,18.50
2022-12-14T13:25:48.666Z,23.77
2022-12-14T13:31:08.712Z,19.13
2022-12-14T13:36:31.014Z,19.42
2022-12-14T13:41:59.560Z,19.73
2022-12-14T13:47:03.303Z,19.33
2022-12-14T13:52:05.590Z,19.60
2022-12-14T13:57:20.501Z,18.58
2022-12-14T14:02:50.652Z,19.33
2022-12-14T14:07:57.943Z,18.77
2022-12-14T14:13:00.959Z,21.50
2022-12-14T14:18:25.795Z,19.02
2022-12-14T14:23:32.295Z,19.70
2022-12-14T14:28:34.224Z,19.02
2022-12-14T14:33:45.236Z,20.23
2022-12-14T14:38:48.559Z,21.70
2022-12-14T14:43:59.934Z,21.10
2022-12-14T14:49:01.649Z,20.40
2022-12-14T14:55:03.586Z,19.33
2022-12-14T14:59:50.884Z,19.42
2022-12-14T15:04:56.906Z,20.70
2022-12-14T15:10:20.676Z,22.80
2022-12-14T15:15:36.992Z,20.45
2022-12-14T15:20:40.468Z,20.98
2022-12-14T15:25:43.307Z,19.95
2022-12-14T15:30:48.067Z,18.20
2022-12-14T15:35:49.631Z,17.75
2022-12-14T15:40:59.222Z,12.40
2022-12-14T15:46:04.546Z,9.35
2022-12-14T15:51:11.045Z,5.50
2022-12-14T15:56:42.598Z,4.57
2022-12-14T16:01:53.217Z,5.50
2022-12-14T16:07:07.816Z,5.75
2022-12-14T16:12:24.777Z,6.57
2022-12-14T16:17:36.317Z,7.00
2022-12-14T16:22:40.235Z,7.45
2022-12-14T16:27:44.594Z,6.95
2022-12-14T16:32:49.775Z,8.27
2022-12-14T16:37:54.420Z,7.97
2022-12-14T16:42:55.853Z,8.30
2022-12-14T16:48:06.705Z,8.32
2022-12-14T16:53:14.460Z,9.38
2022-12-14T16:58:17.693Z,9.82
2022-12-14T17:03:22.146Z,10.27
2022-12-14T17:08:23.816Z,8.43
2022-12-14T17:13:25.848Z,10.30
2022-12-14T17:18:36.777Z,9.40
2022-12-14T17:23:41.316Z,10.85
2022-12-14T17:28:42.783Z,10.02
2022-12-14T17:33:44.384Z,10.73
2022-12-14T17:38:45.940Z,10.50
2022-12-14T17:43:51.163Z,10.27
2022-12-14T17:48:58.439Z,10.27
2022-12-14T17:54:03.096Z,11.13
2022-12-14T17:59:04.582Z,11.90
2022-12-14T18:04:06.301Z,11.52
2022-12-14T18:09:08.699Z,10.85
2022-12-14T18:14:13.982Z,11.77
2022-12-14T18:19:15.531Z,12.10
2022-12-14T18:24:20.282Z,11.68
2022-12-14T18:29:25.762Z,10.60
2022-12-14T18:34:27.269Z,10.68
2022-12-14T18:39:28.696Z,9.63
2022-12-14T18:44:30.169Z,9.73
2022-12-14T18:49:31.630Z,10.27
2022-12-14T18:54:33.095Z,10.60
2022-12-14T18:59:39.077Z,10.43
2022-12-14T19:04:47.873Z,10.13
2022-12-14T19:09:49.311Z,11.50
2022-12-14T19:14:50.837Z,9.27
2022-12-14T19:19:52.379Z,11.27
2022-12-14T19:24:53.859Z,9.70
2022-12-14T19:29:55.370Z,11.15
2022-12-14T19:34:56.857Z,13.68
2022-12-14T19:39:58.296Z,14.13
2022-12-14T19:44:59.766Z,14.23
2022-12-14T19:50:02.572Z,14.20
2022-12-14T19:55:04.335Z,11.15
2022-12-14T20:00:09.852Z,12.48
2022-12-14T20:05:11.320Z,10.55
2022-12-14T20:10:12.880Z,16.50
2022-12-14T20:15:14.363Z,14.15
2022-12-14T20:20:15.792Z,13.85
2022-12-14T20:25:17.403Z,14.75
2022-12-14T20:30:18.864Z,16.63
2022-12-14T20:35:20.332Z,15.50
2022-12-14T20:40:21.792Z,14.93
2022-12-14T20:45:23.281Z,13.25
2022-12-14T20:50:24.692Z,13.30
2022-12-14T20:55:26.128Z,12.90
2022-12-14T21:00:28.235Z,13.65
2022-12-14T21:05:29.861Z,13.65
2022-12-14T21:10:31.325Z,13.65
2022-12-14T21:15:32.782Z,12.68
2022-12-14T21:20:34.270Z,12.60
2022-12-14T21:25:35.684Z,12.32
2022-12-14T21:30:37.161Z,11.38
2022-12-14T21:35:40.464Z,11.25
2022-12-14T21:40:41.891Z,12.45
2022-12-14T21:45:45.708Z,13.15
2022-12-14T21:50:47.591Z,12.93
2022-12-14T21:55:50.261Z,13.32
2022-12-14T22:00:51.793Z,19.67
2022-12-14T22:05:53.326Z,14.95
2022-12-14T22:10:54.802Z,15.05
2022-12-14T22:15:56.382Z,14.55
2022-12-14T22:21:05.445Z,15.45
2022-12-14T22:26:07.192Z,13.63
2022-12-14T22:31:08.678Z,14.32
2022-12-14T22:36:10.124Z,13.90
2022-12-14T22:41:14.469Z,14.50
2022-12-14T22:46:15.978Z,14.35
2022-12-14T22:51:18.646Z,13.65
2022-12-14T22:56:23.019Z,13.68
2022-12-14T23:01:24.931Z,13.45
2022-12-14T23:06:27.185Z,14.88
2022-12-14T23:11:28.624Z,17.33
2022-12-14T23:16:30.218Z,14.57
2022-12-14T23:21:31.771Z,13.00
2022-12-14T23:26:33.288Z,13.00
2022-12-14T23:31:34.765Z,13.32
2022-12-14T23:36:36.199Z,11.40
2022-12-14T23:41:37.668Z,12.95
2022-12-14T23:46:39.152Z,11.07
2022-12-14T23:51:40.676Z,12.20
2022-12-14T23:56:42.089Z,12.73
